sensor_id;sensor_type;location;lat;lon;timestamp;P1;durP1;ratioP1;P2;durP2;ratioP2
24159;SDS011;62385;41.594;23.808;2022-08-04T00:00:25;10.10;;;8.05;;
24159;SDS011;62385;41.594;23.808;2022-08-04T00:08:06;8.05;;;7.32;;
24159;SDS011;62385;41.594;23.808;2022-08-04T00:10:48;8.82;;;5.93;;
24159;SDS011;62385;41.594;23.808;2022-08-04T00:13:21;6.78;;;6.05;;
24159;SDS011;62385;41.594;23.808;2022-08-04T00:15:56;6.05;;;5.45;;
24159;SDS011;62385;41.594;23.808;2022-08-04T00:18:26;6.78;;;6.07;;
24159;SDS011;62385;41.594;23.808;2022-08-04T00:20:59;6.85;;;6.25;;
24159;SDS011;62385;41.594;23.808;2022-08-04T00:23:29;6.35;;;5.80;;
24159;SDS011;62385;41.594;23.808;2022-08-04T00:26:00;7.45;;;6.00;;
24159;SDS011;62385;41.594;23.808;2022-08-04T00:28:28;7.20;;;6.50;;
24159;SDS011;62385;41.594;23.808;2022-08-04T00:30:54;7.30;;;6.57;;
24159;SDS011;62385;41.594;23.808;2022-08-04T00:33:20;8.57;;;6.90;;
24159;SDS011;62385;41.594;23.808;2022-08-04T00:35:47;8.65;;;6.95;;
24159;SDS011;62385;41.594;23.808;2022-08-04T00:38:15;6.72;;;6.13;;
24159;SDS011;62385;41.594;23.808;2022-08-04T00:40:56;6.53;;;5.90;;
24159;SDS011;62385;41.594;23.808;2022-08-04T00:46:54;6.57;;;5.50;;
24159;SDS011;62385;41.594;23.808;2022-08-04T00:49:42;6.70;;;5.95;;
24159;SDS011;62385;41.594;23.808;2022-08-04T01:01:05;10.25;;;4.93;;
24159;SDS011;62385;41.594;23.808;2022-08-04T01:06:21;5.57;;;5.03;;
24159;SDS011;62385;41.594;23.808;2022-08-04T01:20:01;8.68;;;5.20;;
24159;SDS011;62385;41.594;23.808;2022-08-04T01:30:56;6.43;;;5.20;;
24159;SDS011;62385;41.594;23.808;2022-08-04T01:33:22;5.93;;;5.10;;
24159;SDS011;62385;41.594;23.808;2022-08-04T01:35:56;5.65;;;5.15;;
24159;SDS011;62385;41.594;23.808;2022-08-04T01:41:08;8.80;;;5.65;;
24159;SDS011;62385;41.594;23.808;2022-08-04T01:43:42;6.28;;;5.38;;
24159;SDS011;62385;41.594;23.808;2022-08-04T01:46:10;9.70;;;5.53;;
24159;SDS011;62385;41.594;23.808;2022-08-04T01:48:37;4.72;;;4.32;;
24159;SDS011;62385;41.594;23.808;2022-08-04T01:51:04;6.22;;;5.40;;
24159;SDS011;62385;41.594;23.808;2022-08-04T01:53:32;6.10;;;5.18;;
24159;SDS011;62385;41.594;23.808;2022-08-04T01:56:00;5.40;;;5.00;;
24159;SDS011;62385;41.594;23.808;2022-08-04T01:58:28;4.97;;;4.47;;
24159;SDS011;62385;41.594;23.808;2022-08-04T02:00:56;5.28;;;4.78;;
24159;SDS011;62385;41.594;23.808;2022-08-04T02:03:33;6.60;;;6.00;;
24159;SDS011;62385;41.594;23.808;2022-08-04T02:11:24;11.80;;;7.15;;
24159;SDS011;62385;41.594;23.808;2022-08-04T02:13:56;7.85;;;7.05;;
24159;SDS011;62385;41.594;23.808;2022-08-04T02:16:31;9.57;;;6.70;;
24159;SDS011;62385;41.594;23.808;2022-08-04T02:21:59;8.00;;;7.20;;
24159;SDS011;62385;41.594;23.808;2022-08-04T02:24:33;7.75;;;7.05;;
24159;SDS011;62385;41.594;23.808;2022-08-04T02:27:06;8.65;;;7.78;;
24159;SDS011;62385;41.594;23.808;2022-08-04T02:29:34;8.52;;;7.72;;
24159;SDS011;62385;41.594;23.808;2022-08-04T02:32:09;5.70;;;5.10;;
24159;SDS011;62385;41.594;23.808;2022-08-04T02:37:21;5.97;;;5.40;;
24159;SDS011;62385;41.594;23.808;2022-08-04T02:39:51;6.45;;;5.85;;
24159;SDS011;62385;41.594;23.808;2022-08-04T02:42:19;6.57;;;5.97;;
24159;SDS011;62385;41.594;23.808;2022-08-04T02:44:49;6.78;;;6.18;;
24159;SDS011;62385;41.594;23.808;2022-08-04T02:47:16;6.80;;;5.63;;
24159;SDS011;62385;41.594;23.808;2022-08-04T02:49:45;7.47;;;6.72;;
24159;SDS011;62385;41.594;23.808;2022-08-04T02:52:12;6.40;;;5.80;;
24159;SDS011;62385;41.594;23.808;2022-08-04T02:54:39;6.20;;;5.60;;
24159;SDS011;62385;41.594;23.808;2022-08-04T02:57:08;5.72;;;5.20;;
24159;SDS011;62385;41.594;23.808;2022-08-04T03:02:32;6.20;;;5.60;;
24159;SDS011;62385;41.594;23.808;2022-08-04T03:05:10;6.30;;;5.65;;
24159;SDS011;62385;41.594;23.808;2022-08-04T03:12:50;5.55;;;5.05;;
24159;SDS011;62385;41.594;23.808;2022-08-04T03:15:34;6.55;;;5.47;;
24159;SDS011;62385;41.594;23.808;2022-08-04T03:18:42;6.00;;;5.43;;
24159;SDS011;62385;41.594;23.808;2022-08-04T03:27:10;10.80;;;5.85;;
24159;SDS011;62385;41.594;23.808;2022-08-04T03:35:20;6.40;;;4.63;;
24159;SDS011;62385;41.594;23.808;2022-08-04T03:44:04;5.25;;;4.72;;
24159;SDS011;62385;41.594;23.808;2022-08-04T03:52:03;5.10;;;4.60;;
24159;SDS011;62385;41.594;23.808;2022-08-04T04:14:02;8.10;;;7.30;;
24159;SDS011;62385;41.594;23.808;2022-08-04T04:31:02;8.00;;;7.20;;
24159;SDS011;62385;41.594;23.808;2022-08-04T04:34:07;11.15;;;8.35;;
24159;SDS011;62385;41.594;23.808;2022-08-04T04:39:12;11.15;;;8.35;;
24159;SDS011;62385;41.594;23.808;2022-08-04T04:47:10;16.73;;;11.63;;
24159;SDS011;62385;41.594;23.808;2022-08-04T04:49:48;17.98;;;10.77;;
24159;SDS011;62385;41.594;23.808;2022-08-04T04:52:25;13.52;;;9.60;;
24159;SDS011;62385;41.594;23.808;2022-08-04T04:57:39;14.15;;;11.30;;
24159;SDS011;62385;41.594;23.808;2022-08-04T05:00:07;11.80;;;10.70;;
24159;SDS011;62385;41.594;23.808;2022-08-04T05:05:29;12.57;;;11.32;;
24159;SDS011;62385;41.594;23.808;2022-08-04T05:08:01;10.93;;;9.82;;
24159;SDS011;62385;41.594;23.808;2022-08-04T05:11:08;11.82;;;10.23;;
24159;SDS011;62385;41.594;23.808;2022-08-04T05:13:46;11.15;;;10.23;;
24159;SDS011;62385;41.594;23.808;2022-08-04T05:16:19;11.02;;;9.93;;
24159;SDS011;62385;41.594;23.808;2022-08-04T05:19:12;9.52;;;8.73;;
24159;SDS011;62385;41.594;23.808;2022-08-04T05:24:39;8.65;;;7.85;;
24159;SDS011;62385;41.594;23.808;2022-08-04T05:27:14;8.85;;;7.95;;
24159;SDS011;62385;41.594;23.808;2022-08-04T05:29:49;9.93;;;8.38;;
24159;SDS011;62385;41.594;23.808;2022-08-04T05:32:19;7.88;;;7.18;;
24159;SDS011;62385;41.594;23.808;2022-08-04T05:34:51;7.93;;;7.22;;
24159;SDS011;62385;41.594;23.808;2022-08-04T05:37:32;12.90;;;7.70;;
24159;SDS011;62385;41.594;23.808;2022-08-04T05:40:02;8.90;;;7.57;;
24159;SDS011;62385;41.594;23.808;2022-08-04T05:42:34;8.60;;;7.15;;
24159;SDS011;62385;41.594;23.808;2022-08-04T05:45:02;8.93;;;8.02;;
24159;SDS011;62385;41.594;23.808;2022-08-04T05:47:29;9.70;;;7.70;;
24159;SDS011;62385;41.594;23.808;2022-08-04T05:50:15;7.90;;;7.20;;
24159;SDS011;62385;41.594;23.808;2022-08-04T05:52:40;9.77;;;6.65;;
24159;SDS011;62385;41.594;23.808;2022-08-04T05:55:07;9.02;;;7.57;;
24159;SDS011;62385;41.594;23.808;2022-08-04T05:57:39;8.68;;;7.05;;
24159;SDS011;62385;41.594;23.808;2022-08-04T06:00:07;8.20;;;7.40;;
24159;SDS011;62385;41.594;23.808;2022-08-04T06:02:33;12.25;;;9.48;;
24159;SDS011;62385;41.594;23.808;2022-08-04T06:05:00;14.13;;;12.68;;
24159;SDS011;62385;41.594;23.808;2022-08-04T06:07:26;11.45;;;10.35;;
24159;SDS011;62385;41.594;23.808;2022-08-04T06:09:52;13.43;;;9.95;;
24159;SDS011;62385;41.594;23.808;2022-08-04T06:12:24;10.73;;;9.65;;
24159;SDS011;62385;41.594;23.808;2022-08-04T06:14:53;10.52;;;9.35;;
24159;SDS011;62385;41.594;23.808;2022-08-04T06:17:22;10.63;;;9.13;;
24159;SDS011;62385;41.594;23.808;2022-08-04T06:19:54;11.18;;;9.05;;
24159;SDS011;62385;41.594;23.808;2022-08-04T06:22:22;12.80;;;8.45;;
24159;SDS011;62385;41.594;23.808;2022-08-04T06:24:48;10.02;;;7.93;;
24159;SDS011;62385;41.594;23.808;2022-08-04T06:27:16;8.70;;;7.80;;
24159;SDS011;62385;41.594;23.808;2022-08-04T06:29:43;13.80;;;7.55;;
24159;SDS011;62385;41.594;23.808;2022-08-04T06:32:10;7.60;;;6.90;;
24159;SDS011;62385;41.594;23.808;2022-08-04T06:35:00;9.25;;;7.57;;
24159;SDS011;62385;41.594;23.808;2022-08-04T06:37:26;8.52;;;7.07;;
24159;SDS011;62385;41.594;23.808;2022-08-04T06:39:53;8.13;;;6.70;;
24159;SDS011;62385;41.594;23.808;2022-08-04T06:42:20;6.90;;;6.30;;
24159;SDS011;62385;41.594;23.808;2022-08-04T06:44:51;9.10;;;6.55;;
24159;SDS011;62385;41.594;23.808;2022-08-04T06:47:20;7.35;;;6.63;;
24159;SDS011;62385;41.594;23.808;2022-08-04T06:49:52;6.53;;;5.93;;
24159;SDS011;62385;41.594;23.808;2022-08-04T06:52:19;7.05;;;5.75;;
24159;SDS011;62385;41.594;23.808;2022-08-04T06:54:52;6.47;;;5.90;;
24159;SDS011;62385;41.594;23.808;2022-08-04T06:57:21;9.40;;;6.28;;
24159;SDS011;62385;41.594;23.808;2022-08-04T06:59:57;7.90;;;6.55;;
24159;SDS011;62385;41.594;23.808;2022-08-04T07:02:28;9.35;;;6.18;;
24159;SDS011;62385;41.594;23.808;2022-08-04T07:04:55;9.38;;;5.63;;
24159;SDS011;62385;41.594;23.808;2022-08-04T07:07:22;6.78;;;5.70;;
24159;SDS011;62385;41.594;23.808;2022-08-04T07:09:49;6.50;;;5.90;;
24159;SDS011;62385;41.594;23.808;2022-08-04T07:12:16;6.38;;;5.78;;
24159;SDS011;62385;41.594;23.808;2022-08-04T07:14:46;6.85;;;6.15;;
24159;SDS011;62385;41.594;23.808;2022-08-04T07:17:13;6.30;;;5.70;;
24159;SDS011;62385;41.594;23.808;2022-08-04T07:19:40;6.93;;;5.60;;
24159;SDS011;62385;41.594;23.808;2022-08-04T07:22:08;6.15;;;5.60;;
24159;SDS011;62385;41.594;23.808;2022-08-04T07:24:35;5.53;;;5.00;;
24159;SDS011;62385;41.594;23.808;2022-08-04T07:27:02;6.55;;;5.95;;
24159;SDS011;62385;41.594;23.808;2022-08-04T07:29:30;6.10;;;5.50;;
24159;SDS011;62385;41.594;23.808;2022-08-04T07:31:57;11.43;;;5.60;;
24159;SDS011;62385;41.594;23.808;2022-08-04T07:34:25;5.80;;;5.30;;
24159;SDS011;62385;41.594;23.808;2022-08-04T07:36:53;5.70;;;5.20;;
24159;SDS011;62385;41.594;23.808;2022-08-04T07:39:21;11.18;;;5.30;;
24159;SDS011;62385;41.594;23.808;2022-08-04T07:41:48;6.00;;;5.38;;
24159;SDS011;62385;41.594;23.808;2022-08-04T07:44:15;7.47;;;5.30;;
24159;SDS011;62385;41.594;23.808;2022-08-04T07:46:41;6.22;;;5.35;;
24159;SDS011;62385;41.594;23.808;2022-08-04T07:49:28;6.72;;;5.95;;
24159;SDS011;62385;41.594;23.808;2022-08-04T07:51:54;6.25;;;5.65;;
24159;SDS011;62385;41.594;23.808;2022-08-04T07:54:20;6.15;;;5.47;;
24159;SDS011;62385;41.594;23.808;2022-08-04T07:56:48;6.00;;;5.50;;
24159;SDS011;62385;41.594;23.808;2022-08-04T07:59:16;6.43;;;5.72;;
24159;SDS011;62385;41.594;23.808;2022-08-04T08:01:45;6.53;;;5.82;;
24159;SDS011;62385;41.594;23.808;2022-08-04T08:04:11;6.55;;;5.95;;
24159;SDS011;62385;41.594;23.808;2022-08-04T08:06:39;8.57;;;6.18;;
24159;SDS011;62385;41.594;23.808;2022-08-04T08:09:06;7.15;;;6.45;;
24159;SDS011;62385;41.594;23.808;2022-08-04T08:11:37;8.00;;;5.82;;
24159;SDS011;62385;41.594;23.808;2022-08-04T08:14:03;7.82;;;5.93;;
24159;SDS011;62385;41.594;23.808;2022-08-04T08:16:30;5.47;;;5.07;;
24159;SDS011;62385;41.594;23.808;2022-08-04T08:18:58;6.20;;;5.53;;
24159;SDS011;62385;41.594;23.808;2022-08-04T08:21:24;6.35;;;5.75;;
24159;SDS011;62385;41.594;23.808;2022-08-04T08:23:50;8.57;;;6.45;;
24159;SDS011;62385;41.594;23.808;2022-08-04T08:26:18;6.70;;;5.85;;
24159;SDS011;62385;41.594;23.808;2022-08-04T08:28:43;10.63;;;6.32;;
24159;SDS011;62385;41.594;23.808;2022-08-04T08:31:09;5.82;;;5.15;;
24159;SDS011;62385;41.594;23.808;2022-08-04T08:33:35;6.18;;;5.60;;
24159;SDS011;62385;41.594;23.808;2022-08-04T08:44:42;7.68;;;6.88;;
24159;SDS011;62385;41.594;23.808;2022-08-04T08:53:51;5.97;;;5.05;;
24159;SDS011;62385;41.594;23.808;2022-08-04T08:56:07;5.90;;;5.38;;
24159;SDS011;62385;41.594;23.808;2022-08-04T08:58:43;6.10;;;5.18;;
24159;SDS011;62385;41.594;23.808;2022-08-04T09:01:19;6.45;;;5.68;;
24159;SDS011;62385;41.594;23.808;2022-08-04T09:13:15;4.20;;;3.80;;
24159;SDS011;62385;41.594;23.808;2022-08-04T09:18:40;10.00;;;4.60;;
24159;SDS011;62385;41.594;23.808;2022-08-04T09:21:12;5.85;;;3.88;;
24159;SDS011;62385;41.594;23.808;2022-08-04T09:38:15;4.38;;;3.03;;
24159;SDS011;62385;41.594;23.808;2022-08-04T09:54:22;3.50;;;2.72;;
24159;SDS011;62385;41.594;23.808;2022-08-04T10:00:00;2.83;;;2.63;;
24159;SDS011;62385;41.594;23.808;2022-08-04T10:02:38;3.30;;;3.00;;
24159;SDS011;62385;41.594;23.808;2022-08-04T10:05:19;3.38;;;2.72;;
24159;SDS011;62385;41.594;23.808;2022-08-04T10:10:52;4.07;;;2.75;;
24159;SDS011;62385;41.594;23.808;2022-08-04T10:17:19;2.72;;;2.53;;
24159;SDS011;62385;41.594;23.808;2022-08-04T10:19:49;4.40;;;2.60;;
24159;SDS011;62385;41.594;23.808;2022-08-04T10:22:28;3.72;;;3.00;;
24159;SDS011;62385;41.594;23.808;2022-08-04T10:30:15;6.47;;;3.50;;
24159;SDS011;62385;41.594;23.808;2022-08-04T10:32:52;6.25;;;2.42;;
24159;SDS011;62385;41.594;23.808;2022-08-04T10:35:37;4.90;;;3.20;;
24159;SDS011;62385;41.594;23.808;2022-08-04T10:38:32;5.07;;;2.55;;
24159;SDS011;62385;41.594;23.808;2022-08-04T10:41:17;2.78;;;2.35;;
24159;SDS011;62385;41.594;23.808;2022-08-04T10:47:07;2.97;;;2.25;;
24159;SDS011;62385;41.594;23.808;2022-08-04T10:49:58;2.47;;;2.28;;
24159;SDS011;62385;41.594;23.808;2022-08-04T10:56:07;2.40;;;2.20;;
24159;SDS011;62385;41.594;23.808;2022-08-04T10:58:18;2.60;;;2.40;;
24159;SDS011;62385;41.594;23.808;2022-08-04T11:00:45;2.90;;;2.40;;
24159;SDS011;62385;41.594;23.808;2022-08-04T11:03:20;2.45;;;2.25;;
24159;SDS011;62385;41.594;23.808;2022-08-04T11:16:46;2.40;;;2.20;;
24159;SDS011;62385;41.594;23.808;2022-08-04T11:21:56;3.47;;;2.53;;
24159;SDS011;62385;41.594;23.808;2022-08-04T11:26:57;2.60;;;2.40;;
24159;SDS011;62385;41.594;23.808;2022-08-04T11:32:16;2.60;;;2.40;;
24159;SDS011;62385;41.594;23.808;2022-08-04T11:34:46;2.33;;;2.13;;
24159;SDS011;62385;41.594;23.808;2022-08-04T11:37:18;2.60;;;2.40;;
24159;SDS011;62385;41.594;23.808;2022-08-04T11:42:37;3.20;;;2.53;;
24159;SDS011;62385;41.594;23.808;2022-08-04T11:45:19;2.38;;;2.17;;
24159;SDS011;62385;41.594;23.808;2022-08-04T11:47:54;3.33;;;2.35;;
24159;SDS011;62385;41.594;23.808;2022-08-04T11:50:36;4.38;;;2.67;;
24159;SDS011;62385;41.594;23.808;2022-08-04T11:53:05;3.45;;;2.22;;
24159;SDS011;62385;41.594;23.808;2022-08-04T11:55:33;2.97;;;2.70;;
24159;SDS011;62385;41.594;23.808;2022-08-04T11:58:00;5.47;;;2.70;;
24159;SDS011;62385;41.594;23.808;2022-08-04T12:00:27;2.40;;;2.20;;
24159;SDS011;62385;41.594;23.808;2022-08-04T12:03:14;3.40;;;2.47;;
24159;SDS011;62385;41.594;23.808;2022-08-04T12:05:54;3.67;;;2.60;;
24159;SDS011;62385;41.594;23.808;2022-08-04T12:11:27;2.80;;;2.15;;
24159;SDS011;62385;41.594;23.808;2022-08-04T12:16:41;4.28;;;2.38;;
24159;SDS011;62385;41.594;23.808;2022-08-04T12:19:16;5.20;;;2.70;;
24159;SDS011;62385;41.594;23.808;2022-08-04T12:22:04;2.58;;;2.28;;
24159;SDS011;62385;41.594;23.808;2022-08-04T12:24:40;2.60;;;2.40;;
24159;SDS011;62385;41.594;23.808;2022-08-04T12:27:26;2.70;;;2.50;;
24159;SDS011;62385;41.594;23.808;2022-08-04T12:30:00;9.00;;;2.65;;
24159;SDS011;62385;41.594;23.808;2022-08-04T12:35:14;3.22;;;2.58;;
24159;SDS011;62385;41.594;23.808;2022-08-04T12:37:47;4.03;;;2.47;;
24159;SDS011;62385;41.594;23.808;2022-08-04T12:41:03;3.08;;;2.60;;
24159;SDS011;62385;41.594;23.808;2022-08-04T12:43:19;3.42;;;2.20;;
24159;SDS011;62385;41.594;23.808;2022-08-04T12:45:52;3.13;;;2.13;;
24159;SDS011;62385;41.594;23.808;2022-08-04T12:48:20;6.85;;;2.40;;
24159;SDS011;62385;41.594;23.808;2022-08-04T12:50:52;6.63;;;2.38;;
24159;SDS011;62385;41.594;23.808;2022-08-04T12:53:34;3.63;;;2.40;;
24159;SDS011;62385;41.594;23.808;2022-08-04T12:56:03;3.25;;;1.92;;
24159;SDS011;62385;41.594;23.808;2022-08-04T12:58:31;2.30;;;2.10;;
24159;SDS011;62385;41.594;23.808;2022-08-04T13:01:02;2.70;;;2.17;;
24159;SDS011;62385;41.594;23.808;2022-08-04T13:03:44;2.50;;;2.30;;
24159;SDS011;62385;41.594;23.808;2022-08-04T13:06:15;2.50;;;2.30;;
24159;SDS011;62385;41.594;23.808;2022-08-04T13:08:42;4.32;;;2.50;;
24159;SDS011;62385;41.594;23.808;2022-08-04T13:11:10;4.55;;;2.55;;
24159;SDS011;62385;41.594;23.808;2022-08-04T13:13:37;1.98;;;1.83;;
24159;SDS011;62385;41.594;23.808;2022-08-04T13:16:04;2.53;;;2.25;;
24159;SDS011;62385;41.594;23.808;2022-08-04T13:18:33;2.63;;;2.42;;
24159;SDS011;62385;41.594;23.808;2022-08-04T13:21:16;5.63;;;2.00;;
24159;SDS011;62385;41.594;23.808;2022-08-04T13:23:44;6.95;;;2.72;;
24159;SDS011;62385;41.594;23.808;2022-08-04T13:26:14;4.75;;;2.50;;
24159;SDS011;62385;41.594;23.808;2022-08-04T13:28:43;3.67;;;2.35;;
24159;SDS011;62385;41.594;23.808;2022-08-04T13:31:12;6.95;;;2.50;;
24159;SDS011;62385;41.594;23.808;2022-08-04T13:33:40;3.05;;;2.20;;
24159;SDS011;62385;41.594;23.808;2022-08-04T13:36:10;3.38;;;2.70;;
24159;SDS011;62385;41.594;23.808;2022-08-04T13:38:38;3.22;;;2.38;;
24159;SDS011;62385;41.594;23.808;2022-08-04T13:41:16;3.85;;;2.35;;
24159;SDS011;62385;41.594;23.808;2022-08-04T13:43:44;2.70;;;2.50;;
24159;SDS011;62385;41.594;23.808;2022-08-04T13:46:13;4.07;;;2.70;;
24159;SDS011;62385;41.594;23.808;2022-08-04T13:48:42;4.75;;;2.60;;
24159;SDS011;62385;41.594;23.808;2022-08-04T13:51:09;2.42;;;2.17;;
24159;SDS011;62385;41.594;23.808;2022-08-04T13:53:37;3.50;;;2.60;;
24159;SDS011;62385;41.594;23.808;2022-08-04T13:56:05;6.70;;;2.63;;
24159;SDS011;62385;41.594;23.808;2022-08-04T13:58:33;4.30;;;2.80;;
24159;SDS011;62385;41.594;23.808;2022-08-04T14:01:19;2.55;;;2.35;;
24159;SDS011;62385;41.594;23.808;2022-08-04T14:06:19;2.67;;;2.28;;
24159;SDS011;62385;41.594;23.808;2022-08-04T14:09:00;3.60;;;2.78;;
24159;SDS011;62385;41.594;23.808;2022-08-04T14:11:35;3.58;;;2.53;;
24159;SDS011;62385;41.594;23.808;2022-08-04T14:19:28;3.72;;;2.47;;
24159;SDS011;62385;41.594;23.808;2022-08-04T14:21:54;2.40;;;2.20;;
24159;SDS011;62385;41.594;23.808;2022-08-04T14:24:26;3.60;;;2.28;;
24159;SDS011;62385;41.594;23.808;2022-08-04T14:26:59;3.13;;;2.67;;
24159;SDS011;62385;41.594;23.808;2022-08-04T14:29:25;3.00;;;2.70;;
24159;SDS011;62385;41.594;23.808;2022-08-04T14:32:03;3.45;;;2.50;;
24159;SDS011;62385;41.594;23.808;2022-08-04T14:34:30;7.70;;;2.90;;
24159;SDS011;62385;41.594;23.808;2022-08-04T14:36:57;2.92;;;2.72;;
24159;SDS011;62385;41.594;23.808;2022-08-04T14:39:38;2.85;;;2.60;;
24159;SDS011;62385;41.594;23.808;2022-08-04T14:42:06;3.55;;;2.70;;
24159;SDS011;62385;41.594;23.808;2022-08-04T14:47:55;2.80;;;2.60;;
24159;SDS011;62385;41.594;23.808;2022-08-04T14:50:14;3.83;;;3.17;;
24159;SDS011;62385;41.594;23.808;2022-08-04T14:52:40;3.25;;;2.95;;
24159;SDS011;62385;41.594;23.808;2022-08-04T14:55:28;2.90;;;2.70;;
24159;SDS011;62385;41.594;23.808;2022-08-04T14:58:15;5.88;;;2.75;;
24159;SDS011;62385;41.594;23.808;2022-08-04T15:00:46;3.70;;;2.55;;
24159;SDS011;62385;41.594;23.808;2022-08-04T15:03:12;3.22;;;2.72;;
24159;SDS011;62385;41.594;23.808;2022-08-04T15:05:46;3.45;;;2.88;;
24159;SDS011;62385;41.594;23.808;2022-08-04T15:08:16;5.65;;;3.03;;
24159;SDS011;62385;41.594;23.808;2022-08-04T15:10:42;4.72;;;2.60;;
24159;SDS011;62385;41.594;23.808;2022-08-04T15:13:08;2.90;;;2.47;;
24159;SDS011;62385;41.594;23.808;2022-08-04T15:15:37;2.90;;;2.70;;
24159;SDS011;62385;41.594;23.808;2022-08-04T15:18:10;3.03;;;2.67;;
24159;SDS011;62385;41.594;23.808;2022-08-04T15:20:36;2.95;;;2.67;;
24159;SDS011;62385;41.594;23.808;2022-08-04T15:23:07;3.90;;;2.45;;
24159;SDS011;62385;41.594;23.808;2022-08-04T15:26:06;4.28;;;2.60;;
24159;SDS011;62385;41.594;23.808;2022-08-04T15:28:28;3.67;;;2.30;;
24159;SDS011;62385;41.594;23.808;2022-08-04T15:30:55;4.30;;;2.45;;
24159;SDS011;62385;41.594;23.808;2022-08-04T15:33:41;3.63;;;2.67;;
24159;SDS011;62385;41.594;23.808;2022-08-04T15:36:28;7.00;;;2.63;;
24159;SDS011;62385;41.594;23.808;2022-08-04T15:39:02;3.00;;;2.70;;
24159;SDS011;62385;41.594;23.808;2022-08-04T15:47:15;3.33;;;2.83;;
24159;SDS011;62385;41.594;23.808;2022-08-04T15:49:42;5.78;;;3.53;;
24159;SDS011;62385;41.594;23.808;2022-08-04T15:52:09;6.28;;;4.18;;
24159;SDS011;62385;41.594;23.808;2022-08-04T15:54:37;5.22;;;3.03;;
24159;SDS011;62385;41.594;23.808;2022-08-04T15:57:04;3.75;;;3.00;;
24159;SDS011;62385;41.594;23.808;2022-08-04T16:02:29;3.25;;;2.95;;
24159;SDS011;62385;41.594;23.808;2022-08-04T16:10:42;9.73;;;3.95;;
24159;SDS011;62385;41.594;23.808;2022-08-04T16:13:10;7.72;;;4.50;;
24159;SDS011;62385;41.594;23.808;2022-08-04T16:18:08;3.20;;;2.90;;
24159;SDS011;62385;41.594;23.808;2022-08-04T16:20:35;3.78;;;2.60;;
24159;SDS011;62385;41.594;23.808;2022-08-04T16:23:07;2.78;;;2.50;;
24159;SDS011;62385;41.594;23.808;2022-08-04T16:25:58;3.17;;;2.88;;
24159;SDS011;62385;41.594;23.808;2022-08-04T16:30:59;4.15;;;2.90;;
24159;SDS011;62385;41.594;23.808;2022-08-04T16:33:28;6.63;;;2.90;;
24159;SDS011;62385;41.594;23.808;2022-08-04T16:35:55;4.97;;;2.60;;
24159;SDS011;62385;41.594;23.808;2022-08-04T16:38:21;2.90;;;2.35;;
24159;SDS011;62385;41.594;23.808;2022-08-04T16:40:57;5.63;;;2.63;;
24159;SDS011;62385;41.594;23.808;2022-08-04T16:43:28;6.88;;;3.00;;
24159;SDS011;62385;41.594;23.808;2022-08-04T16:45:57;5.43;;;3.35;;
24159;SDS011;62385;41.594;23.808;2022-08-04T16:48:25;4.28;;;3.58;;
24159;SDS011;62385;41.594;23.808;2022-08-04T16:53:20;7.45;;;2.92;;
24159;SDS011;62385;41.594;23.808;2022-08-04T16:55:48;5.63;;;3.08;;
24159;SDS011;62385;41.594;23.808;2022-08-04T16:58:16;6.10;;;3.30;;
24159;SDS011;62385;41.594;23.808;2022-08-04T17:00:48;3.20;;;2.90;;
24159;SDS011;62385;41.594;23.808;2022-08-04T17:03:13;5.53;;;3.42;;
24159;SDS011;62385;41.594;23.808;2022-08-04T17:05:41;3.88;;;3.13;;
24159;SDS011;62385;41.594;23.808;2022-08-04T17:08:08;6.40;;;3.13;;
24159;SDS011;62385;41.594;23.808;2022-08-04T17:10:39;9.43;;;3.75;;
24159;SDS011;62385;41.594;23.808;2022-08-04T17:13:23;12.43;;;5.13;;
24159;SDS011;62385;41.594;23.808;2022-08-04T17:16:11;4.63;;;3.38;;
24159;SDS011;62385;41.594;23.808;2022-08-04T17:18:49;3.17;;;2.85;;
24159;SDS011;62385;41.594;23.808;2022-08-04T17:21:19;4.55;;;3.55;;
24159;SDS011;62385;41.594;23.808;2022-08-04T17:23:54;10.30;;;5.03;;
24159;SDS011;62385;41.594;23.808;2022-08-04T17:26:29;6.90;;;4.53;;
24159;SDS011;62385;41.594;23.808;2022-08-04T17:28:57;6.63;;;4.88;;
24159;SDS011;62385;41.594;23.808;2022-08-04T17:31:26;10.63;;;4.68;;
24159;SDS011;62385;41.594;23.808;2022-08-04T17:33:55;17.20;;;7.45;;
24159;SDS011;62385;41.594;23.808;2022-08-04T17:36:29;15.65;;;6.28;;
24159;SDS011;62385;41.594;23.808;2022-08-04T17:38:57;16.83;;;8.40;;
24159;SDS011;62385;41.594;23.808;2022-08-04T17:41:25;27.67;;;12.90;;
24159;SDS011;62385;41.594;23.808;2022-08-04T17:43:53;23.83;;;11.23;;
24159;SDS011;62385;41.594;23.808;2022-08-04T17:46:39;26.05;;;13.45;;
24159;SDS011;62385;41.594;23.808;2022-08-04T17:49:13;43.35;;;19.52;;
24159;SDS011;62385;41.594;23.808;2022-08-04T17:54:20;11.80;;;6.53;;
24159;SDS011;62385;41.594;23.808;2022-08-04T17:56:53;7.88;;;4.72;;
24159;SDS011;62385;41.594;23.808;2022-08-04T18:04:25;7.75;;;4.57;;
24159;SDS011;62385;41.594;23.808;2022-08-04T18:07:10;5.25;;;4.00;;
24159;SDS011;62385;41.594;23.808;2022-08-04T18:12:04;6.45;;;4.10;;
24159;SDS011;62385;41.594;23.808;2022-08-04T18:14:41;7.75;;;4.07;;
24159;SDS011;62385;41.594;23.808;2022-08-04T18:17:09;4.05;;;3.30;;
24159;SDS011;62385;41.594;23.808;2022-08-04T18:19:35;3.50;;;3.17;;
24159;SDS011;62385;41.594;23.808;2022-08-04T18:22:02;3.45;;;3.15;;
24159;SDS011;62385;41.594;23.808;2022-08-04T18:24:29;3.45;;;3.15;;
24159;SDS011;62385;41.594;23.808;2022-08-04T18:26:56;5.88;;;3.20;;
24159;SDS011;62385;41.594;23.808;2022-08-04T18:29:22;7.05;;;3.38;;
24159;SDS011;62385;41.594;23.808;2022-08-04T18:31:49;3.53;;;3.22;;
24159;SDS011;62385;41.594;23.808;2022-08-04T18:34:15;3.47;;;3.10;;
24159;SDS011;62385;41.594;23.808;2022-08-04T18:36:41;4.57;;;2.83;;
24159;SDS011;62385;41.594;23.808;2022-08-04T18:39:08;3.55;;;3.13;;
24159;SDS011;62385;41.594;23.808;2022-08-04T18:41:34;5.43;;;3.20;;
24159;SDS011;62385;41.594;23.808;2022-08-04T18:44:00;4.70;;;2.90;;
24159;SDS011;62385;41.594;23.808;2022-08-04T18:46:26;5.93;;;3.30;;
24159;SDS011;62385;41.594;23.808;2022-08-04T18:48:52;3.75;;;3.22;;
24159;SDS011;62385;41.594;23.808;2022-08-04T18:51:18;3.20;;;2.90;;
24159;SDS011;62385;41.594;23.808;2022-08-04T18:53:44;8.82;;;3.83;;
24159;SDS011;62385;41.594;23.808;2022-08-04T18:56:11;4.15;;;2.67;;
24159;SDS011;62385;41.594;23.808;2022-08-04T18:58:37;5.30;;;2.67;;
24159;SDS011;62385;41.594;23.808;2022-08-04T19:01:02;4.05;;;3.17;;
24159;SDS011;62385;41.594;23.808;2022-08-04T19:03:28;3.10;;;2.80;;
24159;SDS011;62385;41.594;23.808;2022-08-04T19:05:54;4.05;;;3.38;;
24159;SDS011;62385;41.594;23.808;2022-08-04T19:08:19;3.03;;;2.72;;
24159;SDS011;62385;41.594;23.808;2022-08-04T19:10:45;5.07;;;3.05;;
24159;SDS011;62385;41.594;23.808;2022-08-04T19:13:11;2.72;;;2.53;;
24159;SDS011;62385;41.594;23.808;2022-08-04T19:15:36;3.80;;;3.00;;
24159;SDS011;62385;41.594;23.808;2022-08-04T19:18:02;4.78;;;2.72;;
24159;SDS011;62385;41.594;23.808;2022-08-04T19:20:28;3.05;;;2.67;;
24159;SDS011;62385;41.594;23.808;2022-08-04T19:22:54;4.15;;;2.65;;
24159;SDS011;62385;41.594;23.808;2022-08-04T19:25:20;6.22;;;2.78;;
24159;SDS011;62385;41.594;23.808;2022-08-04T19:27:45;3.17;;;2.88;;
24159;SDS011;62385;41.594;23.808;2022-08-04T19:30:11;3.22;;;2.60;;
24159;SDS011;62385;41.594;23.808;2022-08-04T19:32:37;3.50;;;3.20;;
24159;SDS011;62385;41.594;23.808;2022-08-04T19:35:03;4.28;;;3.55;;
24159;SDS011;62385;41.594;23.808;2022-08-04T19:37:29;4.95;;;3.47;;
24159;SDS011;62385;41.594;23.808;2022-08-04T19:39:56;3.97;;;3.50;;
24159;SDS011;62385;41.594;23.808;2022-08-04T19:42:22;4.47;;;3.75;;